createdAt,value
2018-03-14T00:01:01.851Z,49.20
2018-03-14T00:03:29.948Z,49.30
2018-03-14T00:05:57.985Z,49.30
2018-03-14T00:08:26.044Z,49.20
2018-03-14T00:10:54.101Z,49.20
2018-03-14T00:13:22.149Z,49.20
2018-03-14T00:15:50.243Z,49.30
2018-03-14T00:18:18.295Z,49.20
2018-03-14T00:20:47.125Z,49.20
2018-03-14T00:23:15.176Z,49.80
2018-03-14T00:25:44.008Z,49.20
2018-03-14T00:28:12.098Z,49.20
2018-03-14T00:30:40.333Z,49.30
2018-03-14T00:33:08.383Z,49.20
2018-03-14T00:35:36.446Z,49.20
2018-03-14T00:38:04.490Z,49.20
2018-03-14T00:40:32.578Z,49.20
2018-03-14T00:43:00.626Z,49.20
2018-03-14T00:45:28.766Z,49.20
2018-03-14T00:47:56.788Z,49.20
2018-03-14T00:50:24.828Z,49.20
2018-03-14T00:52:52.886Z,49.20
2018-03-14T00:55:20.960Z,49.20
2018-03-14T00:57:49.016Z,49.30
2018-03-14T01:00:17.833Z,49.20
2018-03-14T01:02:45.898Z,49.10
2018-03-14T01:05:13.968Z,49.10
2018-03-14T01:07:42.032Z,49.10
2018-03-14T01:10:10.114Z,49.10
2018-03-14T01:12:54.423Z,49.10
2018-03-14T01:15:22.738Z,49.00
2018-03-14T01:17:54.780Z,49.00
2018-03-14T01:20:22.850Z,49.00
2018-03-14T01:22:52.809Z,49.10
2018-03-14T01:25:22.807Z,49.00
2018-03-14T01:27:50.983Z,49.00
2018-03-14T01:30:28.992Z,49.00
2018-03-14T01:32:57.821Z,49.00
2018-03-14T01:35:25.869Z,49.10
2018-03-14T01:37:53.956Z,49.00
2018-03-14T01:40:22.060Z,49.10
2018-03-14T01:42:50.121Z,49.00
2018-03-14T01:45:18.189Z,49.00
2018-03-14T01:47:46.265Z,49.10
2018-03-14T01:50:14.333Z,49.00
2018-03-14T01:52:42.435Z,49.10
2018-03-14T01:55:10.516Z,49.00
2018-03-14T01:57:39.345Z,49.00
2018-03-14T02:00:07.715Z,49.00
2018-03-14T02:02:35.811Z,48.80
2018-03-14T02:05:03.893Z,48.90
2018-03-14T02:07:31.959Z,48.90
2018-03-14T02:10:00.008Z,48.90
2018-03-14T02:12:28.069Z,48.90
2018-03-14T02:14:56.111Z,48.90
2018-03-14T02:17:24.223Z,49.00
2018-03-14T02:19:52.288Z,49.00
2018-03-14T02:22:20.335Z,49.00
2018-03-14T02:24:48.381Z,48.90
2018-03-14T02:27:16.435Z,48.90
2018-03-14T02:29:44.542Z,48.80
2018-03-14T02:32:12.582Z,48.90
2018-03-14T02:34:40.628Z,48.90
2018-03-14T02:37:08.683Z,48.90
2018-03-14T02:39:36.716Z,48.90
2018-03-14T02:42:04.811Z,48.80
2018-03-14T02:44:32.870Z,48.80
2018-03-14T02:47:00.930Z,48.90
2018-03-14T02:49:28.958Z,48.80
2018-03-14T02:51:57.000Z,48.90
2018-03-14T02:54:25.122Z,48.80
2018-03-14T02:56:53.162Z,48.90
2018-03-14T02:59:21.288Z,48.80
2018-03-14T03:01:49.318Z,48.80
2018-03-14T03:04:17.350Z,48.80
2018-03-14T03:06:45.434Z,48.80
2018-03-14T03:09:13.676Z,48.90
2018-03-14T03:11:42.459Z,48.70
2018-03-14T03:14:10.502Z,48.70
2018-03-14T03:16:38.538Z,48.90
2018-03-14T03:19:06.594Z,48.80
2018-03-14T03:21:34.718Z,48.90
2018-03-14T03:24:02.738Z,48.80
2018-03-14T03:26:30.773Z,48.80
2018-03-14T03:28:58.812Z,48.80
2018-03-14T03:31:26.905Z,48.80
2018-03-14T03:33:54.942Z,48.80
2018-03-14T03:36:22.981Z,48.80
2018-03-14T03:38:51.003Z,48.70
2018-03-14T03:41:19.081Z,48.70
2018-03-14T03:43:47.918Z,48.80
2018-03-14T03:46:15.953Z,48.80
2018-03-14T03:48:43.983Z,48.70
2018-03-14T03:51:13.897Z,48.80
2018-03-14T03:53:41.947Z,48.70
2018-03-14T03:56:10.023Z,48.70
2018-03-14T03:58:38.077Z,48.60
2018-03-14T04:01:06.102Z,48.60
2018-03-14T04:03:34.125Z,48.60
2018-03-14T04:06:02.159Z,49.30
2018-03-14T04:08:30.227Z,48.50
2018-03-14T04:10:58.273Z,48.50
2018-03-14T04:13:26.367Z,49.20
2018-03-14T04:15:54.401Z,48.50
2018-03-14T04:18:22.435Z,48.60
2018-03-14T04:20:51.607Z,48.50
2018-03-14T04:23:19.655Z,48.40
2018-03-14T04:25:47.681Z,48.40
2018-03-14T04:28:15.726Z,48.20
2018-03-14T04:30:43.794Z,49.30
2018-03-14T04:33:11.852Z,48.80
2018-03-14T04:35:39.918Z,48.90
2018-03-14T04:38:07.951Z,49.10
2018-03-14T04:40:35.991Z,48.70
2018-03-14T04:43:04.042Z,48.50
2018-03-14T04:45:33.630Z,48.60
2018-03-14T04:48:01.662Z,48.60
2018-03-14T04:50:29.712Z,48.50
2018-03-14T04:52:57.745Z,48.60
2018-03-14T04:55:25.786Z,48.40
2018-03-14T04:57:53.875Z,48.30
2018-03-14T05:00:21.916Z,48.10
2018-03-14T05:02:49.983Z,48.00
2018-03-14T05:05:18.018Z,48.00
2018-03-14T05:07:46.496Z,48.20
2018-03-14T05:10:14.564Z,48.40
2018-03-14T05:12:42.606Z,48.40
2018-03-14T05:15:10.649Z,48.40
2018-03-14T05:17:38.712Z,49.10
2018-03-14T05:20:06.743Z,48.50
2018-03-14T05:22:34.806Z,49.30
2018-03-14T05:25:02.840Z,48.70
2018-03-14T05:27:30.893Z,45.90
2018-03-14T05:29:59.709Z,47.00
2018-03-14T05:32:27.737Z,46.90
2018-03-14T05:34:55.797Z,47.60
2018-03-14T05:37:24.591Z,48.00
2018-03-14T05:39:52.625Z,48.00
2018-03-14T05:42:20.653Z,47.90
2018-03-14T05:44:48.689Z,48.00
2018-03-14T05:47:16.766Z,47.90
2018-03-14T05:49:44.811Z,47.90
2018-03-14T05:52:12.846Z,47.80
2018-03-14T05:54:41.640Z,47.90
2018-03-14T05:57:09.666Z,47.80
2018-03-14T05:59:37.837Z,47.80
2018-03-14T06:02:05.878Z,47.90
2018-03-14T06:04:33.929Z,47.90
2018-03-14T06:07:01.959Z,48.00
2018-03-14T06:09:29.986Z,47.90
2018-03-14T06:11:58.042Z,47.90
2018-03-14T06:14:26.079Z,47.90
2018-03-14T06:16:54.112Z,48.10
2018-03-14T06:19:22.167Z,48.00
2018-03-14T06:21:50.220Z,47.90
2018-03-14T06:24:18.277Z,48.00
2018-03-14T06:26:46.351Z,48.00
2018-03-14T06:29:15.437Z,47.90
2018-03-14T06:31:43.484Z,47.90
2018-03-14T06:34:11.502Z,47.90
2018-03-14T06:36:39.576Z,48.00
2018-03-14T06:39:07.594Z,48.60
2018-03-14T06:41:35.659Z,48.00
2018-03-14T06:44:03.711Z,48.30
2018-03-14T06:46:31.753Z,48.50
2018-03-14T06:49:01.422Z,49.30
2018-03-14T06:51:29.460Z,49.20
2018-03-14T06:53:58.288Z,49.20
2018-03-14T06:56:26.354Z,49.20
2018-03-14T06:58:54.421Z,49.50
2018-03-14T07:01:22.546Z,49.20
2018-03-14T07:03:50.620Z,49.20
2018-03-14T07:06:18.730Z,48.60
2018-03-14T07:08:46.798Z,47.40
2018-03-14T07:11:14.841Z,48.80
2018-03-14T07:13:43.692Z,49.20
2018-03-14T07:16:11.748Z,49.20
2018-03-14T07:18:39.802Z,47.90
2018-03-14T07:21:07.863Z,44.70
2018-03-14T07:23:35.936Z,45.20
2018-03-14T07:26:03.993Z,46.20
2018-03-14T07:28:32.107Z,47.10
2018-03-14T07:31:00.130Z,47.40
2018-03-14T07:33:28.221Z,45.30
2018-03-14T07:35:56.267Z,44.80
2018-03-14T07:38:24.309Z,46.30
2018-03-14T07:40:52.344Z,46.80
2018-03-14T07:43:20.392Z,45.40
2018-03-14T07:45:49.264Z,46.50
2018-03-14T07:48:17.309Z,46.40
2018-03-14T07:50:45.372Z,46.70
2018-03-14T07:53:13.419Z,46.60
2018-03-14T07:55:41.464Z,46.40
2018-03-14T07:58:11.045Z,45.90
2018-03-14T08:00:39.849Z,46.10
2018-03-14T08:03:07.899Z,46.10
2018-03-14T08:05:35.954Z,45.50
2018-03-14T08:08:03.978Z,45.40
2018-03-14T08:10:32.032Z,45.60
2018-03-14T08:13:00.063Z,45.80
2018-03-14T08:15:28.311Z,46.20
2018-03-14T08:17:56.355Z,46.20
2018-03-14T08:20:24.412Z,46.50
2018-03-14T08:22:52.474Z,45.60
2018-03-14T08:25:20.531Z,45.80
2018-03-14T08:27:48.615Z,45.70
2018-03-14T08:30:16.638Z,46.60
2018-03-14T08:32:44.680Z,46.10
2018-03-14T08:35:12.740Z,45.80
2018-03-14T08:37:40.794Z,45.50
2018-03-14T08:40:09.300Z,45.60
2018-03-14T08:42:37.570Z,45.90
2018-03-14T08:45:05.606Z,46.10
2018-03-14T08:47:33.705Z,45.90
2018-03-14T08:50:01.733Z,45.60
2018-03-14T08:52:29.753Z,45.40
2018-03-14T08:54:57.790Z,45.10
2018-03-14T08:57:25.839Z,45.20
2018-03-14T08:59:54.686Z,45.00
2018-03-14T09:02:22.703Z,44.90
2018-03-14T09:04:50.765Z,45.20
2018-03-14T09:07:18.838Z,45.40
2018-03-14T09:09:46.862Z,45.50
2018-03-14T09:12:14.934Z,45.70
2018-03-14T09:14:42.976Z,45.90
2018-03-14T09:17:11.773Z,45.90
2018-03-14T09:19:39.831Z,45.80
2018-03-14T09:22:07.874Z,45.70
2018-03-14T09:24:35.941Z,46.00
2018-03-14T09:27:03.993Z,46.00
2018-03-14T09:29:32.022Z,46.10
2018-03-14T09:32:00.121Z,46.30
2018-03-14T09:34:28.181Z,46.50
2018-03-14T09:36:56.259Z,46.90
2018-03-14T09:39:24.281Z,46.90
2018-03-14T09:41:52.313Z,47.00
2018-03-14T09:44:20.371Z,47.30
2018-03-14T09:46:48.389Z,47.40
2018-03-14T09:49:16.443Z,47.00
2018-03-14T09:51:45.263Z,45.60
2018-03-14T09:54:13.355Z,45.60
2018-03-14T09:56:41.368Z,45.50
2018-03-14T09:59:09.436Z,45.20
2018-03-14T10:01:37.481Z,44.70
2018-03-14T10:04:05.508Z,44.20
2018-03-14T10:06:33.590Z,44.90
2018-03-14T10:09:03.147Z,44.60
2018-03-14T10:11:31.192Z,44.60
2018-03-14T10:13:59.266Z,44.90
2018-03-14T10:16:27.324Z,44.60
2018-03-14T10:18:55.370Z,44.60
2018-03-14T10:21:23.454Z,44.80
2018-03-14T10:23:51.508Z,44.90
2018-03-14T10:26:19.558Z,44.90
2018-03-14T10:28:47.584Z,45.00
2018-03-14T10:31:15.614Z,45.00
2018-03-14T10:33:44.454Z,45.30
2018-03-14T10:36:12.502Z,45.30
2018-03-14T10:38:42.042Z,46.10
2018-03-14T10:41:10.108Z,46.10
2018-03-14T10:43:38.156Z,45.60
2018-03-14T10:46:06.248Z,45.60
2018-03-14T10:48:34.271Z,46.00
2018-03-14T10:51:02.301Z,45.90
2018-03-14T10:53:30.372Z,45.90
2018-03-14T10:55:59.169Z,46.70
2018-03-14T10:58:27.229Z,46.60
2018-03-14T11:01:11.884Z,46.50
2018-03-14T11:03:44.747Z,46.40
2018-03-14T11:06:12.790Z,46.60
2018-03-14T11:08:40.838Z,46.70
2018-03-14T11:11:09.015Z,46.80
2018-03-14T11:13:37.066Z,46.70
2018-03-14T11:16:05.884Z,46.80
2018-03-14T11:18:33.977Z,46.80
2018-03-14T11:21:02.034Z,47.10
2018-03-14T11:23:30.089Z,47.10
2018-03-14T11:25:58.234Z,45.00
2018-03-14T11:28:26.287Z,43.90
2018-03-14T11:30:54.307Z,43.70
2018-03-14T11:33:22.385Z,44.00
2018-03-14T11:35:50.463Z,43.80
2018-03-14T11:38:18.511Z,43.90
2018-03-14T11:40:46.521Z,43.50
2018-03-14T11:43:14.566Z,43.90
2018-03-14T11:45:42.627Z,43.90
2018-03-14T11:48:11.419Z,44.10
2018-03-14T11:50:39.451Z,44.10
2018-03-14T11:53:07.481Z,43.80
2018-03-14T11:55:35.555Z,43.70
2018-03-14T11:58:03.622Z,44.00
2018-03-14T12:00:31.655Z,44.60
2018-03-14T12:02:59.694Z,44.50
2018-03-14T12:05:27.747Z,44.70
2018-03-14T12:07:55.771Z,44.90
2018-03-14T12:10:23.841Z,45.10
2018-03-14T12:12:51.856Z,45.30
2018-03-14T12:15:19.904Z,45.50
2018-03-14T12:17:48.704Z,47.60
2018-03-14T12:20:16.742Z,47.50
2018-03-14T12:22:44.820Z,49.60
2018-03-14T12:25:12.858Z,45.80
2018-03-14T12:27:40.887Z,45.70
2018-03-14T12:30:09.738Z,42.70
2018-03-14T12:32:37.764Z,42.60
2018-03-14T12:35:05.849Z,42.20
2018-03-14T12:37:33.932Z,43.80
2018-03-14T12:40:01.978Z,44.00
2018-03-14T12:42:30.008Z,43.30
2018-03-14T12:44:58.041Z,44.00
2018-03-14T12:47:26.106Z,44.40
2018-03-14T12:49:54.140Z,44.60
2018-03-14T12:52:22.938Z,45.00
2018-03-14T12:54:50.972Z,44.90
2018-03-14T12:57:18.988Z,45.10
2018-03-14T12:59:47.077Z,45.30
2018-03-14T13:02:15.136Z,45.40
2018-03-14T13:04:43.194Z,45.40
2018-03-14T13:07:11.224Z,45.60
2018-03-14T13:09:39.692Z,45.70
2018-03-14T13:12:07.732Z,46.50
2018-03-14T13:14:35.787Z,46.00
2018-03-14T13:17:03.819Z,46.00
2018-03-14T13:19:31.863Z,46.10
2018-03-14T13:21:59.920Z,46.20
2018-03-14T13:24:27.976Z,46.30
2018-03-14T13:26:56.770Z,46.40
2018-03-14T13:29:24.802Z,46.40
2018-03-14T13:31:52.861Z,46.60
2018-03-14T13:34:20.893Z,46.80
2018-03-14T13:36:48.931Z,45.10
2018-03-14T13:39:17.744Z,45.30
2018-03-14T13:41:45.828Z,45.90
2018-03-14T13:44:13.854Z,46.60
2018-03-14T13:46:41.885Z,47.00
2018-03-14T13:49:09.914Z,47.20
2018-03-14T13:51:37.954Z,47.40
2018-03-14T13:54:06.076Z,47.60
2018-03-14T13:56:34.093Z,47.60
2018-03-14T13:59:02.135Z,47.70
2018-03-14T14:01:30.180Z,47.80
2018-03-14T14:03:58.235Z,48.00
2018-03-14T14:06:26.307Z,48.10
2018-03-14T14:08:54.335Z,48.60
2018-03-14T14:11:22.389Z,48.70
2018-03-14T14:13:50.433Z,49.10
2018-03-14T14:16:18.470Z,49.20
2018-03-14T14:18:46.534Z,49.50
2018-03-14T14:21:14.607Z,49.80
2018-03-14T14:23:42.666Z,49.50
2018-03-14T14:26:10.701Z,49.60
2018-03-14T14:28:38.779Z,49.60
2018-03-14T14:31:06.841Z,49.60
2018-03-14T14:33:34.886Z,49.60
2018-03-14T14:36:02.908Z,49.30
2018-03-14T14:38:30.959Z,47.90
2018-03-14T14:40:59.758Z,47.40
2018-03-14T14:43:27.843Z,47.30
2018-03-14T14:45:55.895Z,46.90
2018-03-14T14:48:23.925Z,45.10
2018-03-14T14:50:51.972Z,46.60
2018-03-14T14:53:20.009Z,46.10
2018-03-14T14:55:48.216Z,46.00
2018-03-14T14:58:16.255Z,45.00
2018-03-14T15:00:44.324Z,45.90
2018-03-14T15:03:12.353Z,46.30
2018-03-14T15:05:40.409Z,46.60
2018-03-14T15:08:08.475Z,47.20
2018-03-14T15:10:36.501Z,47.50
2018-03-14T15:13:04.518Z,47.80
2018-03-14T15:15:32.608Z,48.70
2018-03-14T15:18:00.769Z,48.10
2018-03-14T15:20:28.840Z,48.20
2018-03-14T15:22:56.888Z,48.40
2018-03-14T15:25:24.939Z,48.70
2018-03-14T15:27:53.059Z,46.30
2018-03-14T15:30:21.042Z,45.40
2018-03-14T15:32:49.145Z,44.50
2018-03-14T15:35:17.174Z,46.00
2018-03-14T15:37:45.210Z,46.70
2018-03-14T15:40:13.242Z,47.20
2018-03-14T15:42:41.308Z,47.60
2018-03-14T15:45:10.486Z,47.90
2018-03-14T15:47:38.526Z,48.10
2018-03-14T15:50:06.565Z,48.20
2018-03-14T15:52:34.602Z,48.40
2018-03-14T15:55:02.647Z,48.50
2018-03-14T15:57:30.769Z,48.50
2018-03-14T15:59:59.106Z,48.50
2018-03-14T16:02:27.150Z,48.70
2018-03-14T16:04:55.200Z,48.70
2018-03-14T16:07:23.244Z,48.70
2018-03-14T16:09:51.318Z,48.70
2018-03-14T16:12:20.036Z,49.00
2018-03-14T16:14:48.154Z,48.30
2018-03-14T16:17:16.226Z,48.40
2018-03-14T16:19:44.651Z,48.40
2018-03-14T16:22:12.720Z,48.60
2018-03-14T16:24:40.798Z,48.80
2018-03-14T16:27:08.860Z,48.80
2018-03-14T16:29:36.962Z,48.80
2018-03-14T16:32:06.506Z,49.00
2018-03-14T16:34:34.596Z,49.00
2018-03-14T16:37:02.652Z,49.20
2018-03-14T16:39:30.781Z,49.20
2018-03-14T16:41:58.898Z,49.40
2018-03-14T16:44:26.967Z,49.20
2018-03-14T16:46:55.010Z,49.00
2018-03-14T16:49:23.086Z,48.90
2018-03-14T16:51:51.912Z,49.30
2018-03-14T16:54:19.970Z,49.30
2018-03-14T16:56:48.049Z,49.10
2018-03-14T16:59:16.097Z,49.20
2018-03-14T17:01:44.177Z,49.60
2018-03-14T17:04:12.237Z,49.80
2018-03-14T17:06:40.331Z,49.80
2018-03-14T17:09:08.407Z,49.70
2018-03-14T17:11:36.490Z,49.70
2018-03-14T17:14:04.545Z,49.60
2018-03-14T17:16:32.593Z,49.70
2018-03-14T17:19:00.647Z,49.50
2018-03-14T17:21:28.811Z,49.80
2018-03-14T17:23:56.857Z,49.60
2018-03-14T17:26:24.933Z,50.20
2018-03-14T17:28:53.010Z,50.10
2018-03-14T17:31:21.071Z,50.50
2018-03-14T17:33:49.354Z,50.90
2018-03-14T17:36:17.402Z,51.00
2018-03-14T17:38:45.458Z,51.20
2018-03-14T17:41:13.564Z,51.40
2018-03-14T17:43:41.590Z,51.30
2018-03-14T17:46:09.660Z,51.40
2018-03-14T17:48:37.739Z,51.80
2018-03-14T17:51:07.459Z,52.00
2018-03-14T17:53:35.524Z,51.90
2018-03-14T17:56:03.577Z,52.00
2018-03-14T17:58:31.604Z,52.10
2018-03-14T18:00:59.649Z,51.90
2018-03-14T18:03:27.727Z,47.30
2018-03-14T18:05:56.554Z,49.10
2018-03-14T18:08:24.602Z,49.10
2018-03-14T18:10:52.657Z,50.20
2018-03-14T18:13:22.637Z,50.40
2018-03-14T18:15:50.700Z,50.70
2018-03-14T18:18:18.774Z,51.70
2018-03-14T18:20:46.837Z,50.90
2018-03-14T18:23:14.862Z,50.80
2018-03-14T18:25:42.940Z,50.90
2018-03-14T18:28:11.413Z,51.10
2018-03-14T18:30:39.492Z,50.80
2018-03-14T18:33:07.563Z,48.80
2018-03-14T18:35:35.639Z,48.70
2018-03-14T18:38:03.724Z,49.20
2018-03-14T18:40:31.785Z,50.30
2018-03-14T18:42:59.825Z,50.50
2018-03-14T18:45:27.882Z,50.60
2018-03-14T18:47:55.952Z,50.70
2018-03-14T18:50:24.023Z,50.90
2018-03-14T18:52:52.066Z,50.80
2018-03-14T18:55:20.133Z,50.90
2018-03-14T18:57:48.208Z,51.10
2018-03-14T19:00:16.242Z,51.30
2018-03-14T19:02:44.321Z,51.40
2018-03-14T19:05:12.398Z,51.30
2018-03-14T19:07:40.467Z,52.00
2018-03-14T19:10:10.395Z,51.30
2018-03-14T19:12:39.208Z,51.20
2018-03-14T19:15:07.252Z,51.10
2018-03-14T19:17:35.273Z,50.90
2018-03-14T19:20:03.327Z,51.00
2018-03-14T19:22:31.390Z,50.90
2018-03-14T19:25:00.193Z,50.70
2018-03-14T19:27:28.250Z,50.60
2018-03-14T19:29:57.466Z,50.90
2018-03-14T19:32:25.980Z,50.80
2018-03-14T19:34:54.653Z,50.80
2018-03-14T19:37:23.626Z,50.60
2018-03-14T19:39:51.704Z,50.60
2018-03-14T19:42:21.427Z,50.70
2018-03-14T19:44:50.466Z,50.50
2018-03-14T19:47:18.568Z,50.70
2018-03-14T19:49:46.638Z,50.70
2018-03-14T19:52:15.187Z,50.70
2018-03-14T19:54:44.137Z,50.60
2018-03-14T19:57:12.468Z,50.60
2018-03-14T19:59:40.585Z,50.60
2018-03-14T20:02:08.641Z,50.50
2018-03-14T20:04:36.685Z,50.60
2018-03-14T20:07:04.749Z,51.10
2018-03-14T20:09:32.804Z,50.50
2018-03-14T20:12:00.827Z,50.50
2018-03-14T20:14:28.899Z,50.40
2018-03-14T20:16:56.966Z,50.40
2018-03-14T20:19:25.099Z,50.20
2018-03-14T20:21:53.164Z,50.40
2018-03-14T20:24:21.202Z,50.60
2018-03-14T20:26:49.288Z,50.80
2018-03-14T20:29:17.377Z,50.90
2018-03-14T20:31:45.431Z,50.70
2018-03-14T20:34:13.466Z,50.70
2018-03-14T20:36:41.555Z,50.60
2018-03-14T20:39:09.633Z,50.60
2018-03-14T20:41:37.680Z,50.40
2018-03-14T20:44:05.725Z,50.50
2018-03-14T20:46:34.943Z,50.40
2018-03-14T20:49:03.732Z,50.40
2018-03-14T20:51:31.805Z,50.30
2018-03-14T20:54:00.624Z,50.50
2018-03-14T20:56:29.058Z,50.40
2018-03-14T20:58:57.134Z,50.30
2018-03-14T21:01:26.700Z,50.10
2018-03-14T21:03:54.776Z,49.70
2018-03-14T21:06:22.823Z,49.80
2018-03-14T21:08:50.896Z,49.70
2018-03-14T21:11:18.990Z,49.80
2018-03-14T21:13:48.108Z,50.00
2018-03-14T21:16:16.172Z,50.00
2018-03-14T21:18:44.252Z,49.80
2018-03-14T21:21:12.387Z,49.00
2018-03-14T21:23:40.922Z,48.00
2018-03-14T21:26:09.860Z,49.00
2018-03-14T21:28:37.944Z,49.00
2018-03-14T21:31:06.050Z,49.00
2018-03-14T21:33:34.299Z,49.20
2018-03-14T21:36:02.352Z,49.10
2018-03-14T21:38:31.412Z,49.00
2018-03-14T21:40:59.451Z,49.00
2018-03-14T21:43:27.516Z,48.80
2018-03-14T21:45:55.548Z,48.80
2018-03-14T21:48:23.604Z,48.80
2018-03-14T21:50:51.679Z,48.80
2018-03-14T21:53:20.283Z,48.80
2018-03-14T21:55:48.365Z,48.50
2018-03-14T21:58:16.420Z,48.50
2018-03-14T22:00:44.527Z,48.80
2018-03-14T22:03:12.563Z,48.70
2018-03-14T22:05:42.121Z,48.50
2018-03-14T22:08:10.161Z,48.40
2018-03-14T22:10:38.187Z,48.20
2018-03-14T22:13:06.261Z,48.10
2018-03-14T22:15:34.321Z,47.90
2018-03-14T22:18:02.357Z,47.90
2018-03-14T22:20:30.416Z,47.90
2018-03-14T22:22:59.152Z,47.80
2018-03-14T22:25:27.252Z,48.40
2018-03-14T22:27:56.025Z,47.60
2018-03-14T22:30:24.068Z,47.70
2018-03-14T22:32:52.114Z,47.60
2018-03-14T22:35:20.165Z,47.60
2018-03-14T22:37:48.210Z,47.50
2018-03-14T22:40:16.277Z,47.50
2018-03-14T22:42:44.317Z,47.50
2018-03-14T22:45:12.390Z,47.60
2018-03-14T22:47:41.238Z,47.60
2018-03-14T22:50:10.031Z,47.60
2018-03-14T22:52:38.115Z,47.60
2018-03-14T22:55:06.156Z,47.50
2018-03-14T22:57:37.328Z,47.40
2018-03-14T23:00:05.390Z,47.40
2018-03-14T23:02:33.437Z,47.30
2018-03-14T23:05:02.217Z,47.20
2018-03-14T23:07:30.297Z,47.30
2018-03-14T23:09:59.183Z,47.20
2018-03-14T23:12:28.168Z,47.20
2018-03-14T23:14:56.197Z,47.20
2018-03-14T23:17:24.284Z,47.20
2018-03-14T23:19:52.308Z,47.20
2018-03-14T23:22:20.341Z,47.20
2018-03-14T23:24:48.375Z,47.20
2018-03-14T23:27:16.416Z,47.30
2018-03-14T23:29:44.492Z,47.30
2018-03-14T23:32:13.620Z,47.30
2018-03-14T23:34:41.645Z,47.10
2018-03-14T23:37:09.683Z,47.00
2018-03-14T23:39:38.816Z,45.90
2018-03-14T23:42:06.866Z,45.80
2018-03-14T23:44:34.903Z,46.90
2018-03-14T23:47:03.691Z,46.60
2018-03-14T23:49:34.066Z,46.60
2018-03-14T23:52:02.127Z,46.20
2018-03-14T23:54:30.171Z,46.30
2018-03-14T23:56:58.233Z,45.90
2018-03-14T23:59:26.259Z,45.80
